sensor_id;sensor_type;location;lat;lon;timestamp;temperature;humidity
67502;SHT30;54349;52.528;19.760;2022-07-11T00:01:26;23.43;49.34
67502;SHT30;54349;52.528;19.760;2022-07-11T00:03:54;23.43;48.41
67502;SHT30;54349;52.528;19.760;2022-07-11T00:06:22;23.24;49.11
67502;SHT30;54349;52.528;19.760;2022-07-11T00:08:51;23.27;49.33
67502;SHT30;54349;52.528;19.760;2022-07-11T00:11:19;23.37;49.28
67502;SHT30;54349;52.528;19.760;2022-07-11T00:13:47;23.41;48.59
67502;SHT30;54349;52.528;19.760;2022-07-11T00:16:16;23.20;48.59
67502;SHT30;54349;52.528;19.760;2022-07-11T00:18:44;23.16;49.24
67502;SHT30;54349;52.528;19.760;2022-07-11T00:21:12;23.24;49.20
67502;SHT30;54349;52.528;19.760;2022-07-11T00:23:40;23.34;49.09
67502;SHT30;54349;52.528;19.760;2022-07-11T00:26:09;23.27;48.04
67502;SHT30;54349;52.528;19.760;2022-07-11T00:28:37;23.09;49.00
67502;SHT30;54349;52.528;19.760;2022-07-11T00:31:05;23.13;49.13
67502;SHT30;54349;52.528;19.760;2022-07-11T00:33:36;23.23;49.10
67502;SHT30;54349;52.528;19.760;2022-07-11T00:36:06;23.31;48.79
67502;SHT30;54349;52.528;19.760;2022-07-11T00:38:35;23.19;48.38
67502;SHT30;54349;52.528;19.760;2022-07-11T00:41:03;23.12;49.04
67502;SHT30;54349;52.528;19.760;2022-07-11T00:43:32;23.19;49.06
67502;SHT30;54349;52.528;19.760;2022-07-11T00:46:07;23.26;49.00
67502;SHT30;54349;52.528;19.760;2022-07-11T00:48:36;23.26;48.23
67502;SHT30;54349;52.528;19.760;2022-07-11T00:51:05;23.06;48.89
67502;SHT30;54349;52.528;19.760;2022-07-11T00:53:33;23.07;49.09
67502;SHT30;54349;52.528;19.760;2022-07-11T00:56:03;23.16;49.08
67502;SHT30;54349;52.528;19.760;2022-07-11T00:58:33;23.24;48.92
67502;SHT30;54349;52.528;19.760;2022-07-11T01:01:03;23.16;48.35
67502;SHT30;54349;52.528;19.760;2022-07-11T01:03:33;23.05;49.08
67502;SHT30;54349;52.528;19.760;2022-07-11T01:06:03;23.10;49.09
67502;SHT30;54349;52.528;19.760;2022-07-11T01:08:32;23.18;49.01
67502;SHT30;54349;52.528;19.760;2022-07-11T01:11:03;23.22;48.44
67502;SHT30;54349;52.528;19.760;2022-07-11T01:13:40;23.05;48.68
67502;SHT30;54349;52.528;19.760;2022-07-11T01:16:13;23.04;49.04
67502;SHT30;54349;52.528;19.760;2022-07-11T01:18:48;23.11;49.01
67502;SHT30;54349;52.528;19.760;2022-07-11T01:21:22;23.19;48.97
67502;SHT30;54349;52.528;19.760;2022-07-11T01:23:54;23.16;48.11
67502;SHT30;54349;52.528;19.760;2022-07-11T01:26:25;22.98;48.90
67502;SHT30;54349;52.528;19.760;2022-07-11T01:28:54;23.00;49.02
67502;SHT30;54349;52.528;19.760;2022-07-11T01:31:32;23.08;49.00
67502;SHT30;54349;52.528;19.760;2022-07-11T01:34:01;23.15;48.96
67502;SHT30;54349;52.528;19.760;2022-07-11T01:36:29;23.09;48.16
67502;SHT30;54349;52.528;19.760;2022-07-11T01:38:57;22.92;49.01
67502;SHT30;54349;52.528;19.760;2022-07-11T01:41:25;22.96;49.10
67502;SHT30;54349;52.528;19.760;2022-07-11T01:43:54;23.04;49.03
67502;SHT30;54349;52.528;19.760;2022-07-11T01:46:22;23.11;48.98
67502;SHT30;54349;52.528;19.760;2022-07-11T01:48:50;23.12;48.37
67502;SHT30;54349;52.528;19.760;2022-07-11T01:51:19;22.94;48.92
67502;SHT30;54349;52.528;19.760;2022-07-11T01:53:47;22.95;49.11
67502;SHT30;54349;52.528;19.760;2022-07-11T01:56:15;23.03;49.04
67502;SHT30;54349;52.528;19.760;2022-07-11T01:58:48;23.10;49.00
67502;SHT30;54349;52.528;19.760;2022-07-11T02:01:23;23.12;48.48
67502;SHT30;54349;52.528;19.760;2022-07-11T02:03:52;22.95;48.82
67502;SHT30;54349;52.528;19.760;2022-07-11T02:06:21;22.94;49.10
67502;SHT30;54349;52.528;19.760;2022-07-11T02:08:50;23.02;49.06
67502;SHT30;54349;52.528;19.760;2022-07-11T02:11:18;23.08;49.02
67502;SHT30;54349;52.528;19.760;2022-07-11T02:13:46;23.14;48.65
67502;SHT30;54349;52.528;19.760;2022-07-11T02:16:14;22.98;48.63
67502;SHT30;54349;52.528;19.760;2022-07-11T02:18:43;22.94;49.12
67502;SHT30;54349;52.528;19.760;2022-07-11T02:21:12;22.99;49.09
67502;SHT30;54349;52.528;19.760;2022-07-11T02:23:40;23.06;49.02
67502;SHT30;54349;52.528;19.760;2022-07-11T02:26:08;23.11;48.93
67502;SHT30;54349;52.528;19.760;2022-07-11T02:28:36;23.01;48.13
67502;SHT30;54349;52.528;19.760;2022-07-11T02:31:05;22.89;48.98
67502;SHT30;54349;52.528;19.760;2022-07-11T02:33:33;22.94;49.01
67502;SHT30;54349;52.528;19.760;2022-07-11T02:36:02;23.01;49.00
67502;SHT30;54349;52.528;19.760;2022-07-11T02:38:30;23.08;49.00
67502;SHT30;54349;52.528;19.760;2022-07-11T02:40:58;23.10;48.36
67502;SHT30;54349;52.528;19.760;2022-07-11T02:43:26;22.91;48.70
67502;SHT30;54349;52.528;19.760;2022-07-11T02:45:56;22.90;49.05
67502;SHT30;54349;52.528;19.760;2022-07-11T02:48:24;22.95;49.01
67502;SHT30;54349;52.528;19.760;2022-07-11T02:50:52;23.02;49.01
67502;SHT30;54349;52.528;19.760;2022-07-11T02:53:21;23.09;48.99
67502;SHT30;54349;52.528;19.760;2022-07-11T02:55:49;23.02;48.14
67502;SHT30;54349;52.528;19.760;2022-07-11T02:58:18;22.88;49.05
67502;SHT30;54349;52.528;19.760;2022-07-11T03:00:46;22.90;49.08
67502;SHT30;54349;52.528;19.760;2022-07-11T03:03:14;22.97;49.03
67502;SHT30;54349;52.528;19.760;2022-07-11T03:05:42;23.03;49.01
67502;SHT30;54349;52.528;19.760;2022-07-11T03:08:11;23.07;48.74
67502;SHT30;54349;52.528;19.760;2022-07-11T03:10:40;22.92;48.42
67502;SHT30;54349;52.528;19.760;2022-07-11T03:13:08;22.86;49.09
67502;SHT30;54349;52.528;19.760;2022-07-11T03:15:36;22.92;49.08
67502;SHT30;54349;52.528;19.760;2022-07-11T03:18:04;22.98;49.06
67502;SHT30;54349;52.528;19.760;2022-07-11T03:20:33;23.04;49.09
67502;SHT30;54349;52.528;19.760;2022-07-11T03:23:01;23.07;48.74
67502;SHT30;54349;52.528;19.760;2022-07-11T03:25:29;22.91;48.40
67502;SHT30;54349;52.528;19.760;2022-07-11T03:27:57;22.84;49.11
67502;SHT30;54349;52.528;19.760;2022-07-11T03:30:26;22.90;49.11
67502;SHT30;54349;52.528;19.760;2022-07-11T03:32:54;22.96;49.10
67502;SHT30;54349;52.528;19.760;2022-07-11T03:35:22;23.02;49.10
67502;SHT30;54349;52.528;19.760;2022-07-11T03:38:09;22.97;48.17
67502;SHT30;54349;52.528;19.760;2022-07-11T03:40:39;22.80;49.08
67502;SHT30;54349;52.528;19.760;2022-07-11T03:43:08;22.85;49.11
67502;SHT30;54349;52.528;19.760;2022-07-11T03:45:37;22.91;49.10
67502;SHT30;54349;52.528;19.760;2022-07-11T03:48:06;22.97;49.10
67502;SHT30;54349;52.528;19.760;2022-07-11T03:50:35;23.01;48.67
67502;SHT30;54349;52.528;19.760;2022-07-11T03:53:03;22.83;48.62
67502;SHT30;54349;52.528;19.760;2022-07-11T03:55:32;22.78;49.16
67502;SHT30;54349;52.528;19.760;2022-07-11T03:58:01;22.85;49.12
67502;SHT30;54349;52.528;19.760;2022-07-11T04:00:30;22.91;49.10
67502;SHT30;54349;52.528;19.760;2022-07-11T04:02:59;22.97;49.11
67502;SHT30;54349;52.528;19.760;2022-07-11T04:05:27;23.02;48.92
67502;SHT30;54349;52.528;19.760;2022-07-11T04:07:57;22.88;48.52
67502;SHT30;54349;52.528;19.760;2022-07-11T04:10:26;22.81;49.18
67502;SHT30;54349;52.528;19.760;2022-07-11T04:12:54;22.84;49.15
67502;SHT30;54349;52.528;19.760;2022-07-11T04:15:22;22.90;49.16
67502;SHT30;54349;52.528;19.760;2022-07-11T04:17:51;22.94;49.17
67502;SHT30;54349;52.528;19.760;2022-07-11T04:20:19;22.99;49.05
67502;SHT30;54349;52.528;19.760;2022-07-11T04:22:48;22.88;48.52
67502;SHT30;54349;52.528;19.760;2022-07-11T04:25:16;22.77;49.27
67502;SHT30;54349;52.528;19.760;2022-07-11T04:27:45;22.81;49.27
67502;SHT30;54349;52.528;19.760;2022-07-11T04:30:13;22.88;49.25
67502;SHT30;54349;52.528;19.760;2022-07-11T04:32:41;22.93;49.25
67502;SHT30;54349;52.528;19.760;2022-07-11T04:35:09;22.89;48.56
67502;SHT30;54349;52.528;19.760;2022-07-11T04:37:37;22.72;49.33
67502;SHT30;54349;52.528;19.760;2022-07-11T04:40:05;22.76;49.38
67502;SHT30;54349;52.528;19.760;2022-07-11T04:42:39;22.83;49.30
67502;SHT30;54349;52.528;19.760;2022-07-11T04:45:08;22.89;49.35
67502;SHT30;54349;52.528;19.760;2022-07-11T04:47:37;22.94;49.18
67502;SHT30;54349;52.528;19.760;2022-07-11T04:50:06;22.82;48.72
67502;SHT30;54349;52.528;19.760;2022-07-11T04:52:34;22.75;49.40
67502;SHT30;54349;52.528;19.760;2022-07-11T04:55:03;22.79;49.38
67502;SHT30;54349;52.528;19.760;2022-07-11T04:57:32;22.86;49.37
67502;SHT30;54349;52.528;19.760;2022-07-11T05:00:00;22.91;49.41
67502;SHT30;54349;52.528;19.760;2022-07-11T05:02:29;22.97;49.19
67502;SHT30;54349;52.528;19.760;2022-07-11T05:04:58;22.84;48.80
67502;SHT30;54349;52.528;19.760;2022-07-11T05:07:26;22.76;49.47
67502;SHT30;54349;52.528;19.760;2022-07-11T05:09:54;22.82;49.41
67502;SHT30;54349;52.528;19.760;2022-07-11T05:12:22;22.89;49.39
67502;SHT30;54349;52.528;19.760;2022-07-11T05:14:51;22.94;49.35
67502;SHT30;54349;52.528;19.760;2022-07-11T05:17:19;22.98;49.07
67502;SHT30;54349;52.528;19.760;2022-07-11T05:19:47;22.83;48.99
67502;SHT30;54349;52.528;19.760;2022-07-11T05:22:15;22.77;49.49
67502;SHT30;54349;52.528;19.760;2022-07-11T05:24:43;22.85;49.41
67502;SHT30;54349;52.528;19.760;2022-07-11T05:27:12;22.91;49.39
67502;SHT30;54349;52.528;19.760;2022-07-11T05:29:41;22.97;49.38
67502;SHT30;54349;52.528;19.760;2022-07-11T05:32:09;23.02;49.03
67502;SHT30;54349;52.528;19.760;2022-07-11T05:34:38;22.85;49.22
67502;SHT30;54349;52.528;19.760;2022-07-11T05:37:07;22.82;49.60
67502;SHT30;54349;52.528;19.760;2022-07-11T05:39:35;22.88;49.53
67502;SHT30;54349;52.528;19.760;2022-07-11T05:42:03;22.95;49.50
67502;SHT30;54349;52.528;19.760;2022-07-11T05:44:32;23.01;49.37
67502;SHT30;54349;52.528;19.760;2022-07-11T05:47:01;22.93;48.20
67502;SHT30;54349;52.528;19.760;2022-07-11T05:49:31;22.78;49.29
67502;SHT30;54349;52.528;19.760;2022-07-11T05:51:59;22.83;49.25
67502;SHT30;54349;52.528;19.760;2022-07-11T05:54:29;22.91;49.20
67502;SHT30;54349;52.528;19.760;2022-07-11T05:56:57;22.98;49.63
67502;SHT30;54349;52.528;19.760;2022-07-11T05:59:25;23.04;50.31
67502;SHT30;54349;52.528;19.760;2022-07-11T06:01:54;22.99;50.13
67502;SHT30;54349;52.528;19.760;2022-07-11T06:04:23;22.86;51.75
67502;SHT30;54349;52.528;19.760;2022-07-11T06:06:51;22.93;51.72
67502;SHT30;54349;52.528;19.760;2022-07-11T06:09:19;23.02;51.47
67502;SHT30;54349;52.528;19.760;2022-07-11T06:11:48;23.11;51.25
67502;SHT30;54349;52.528;19.760;2022-07-11T06:14:17;23.12;50.37
67502;SHT30;54349;52.528;19.760;2022-07-11T06:16:46;22.90;50.80
67502;SHT30;54349;52.528;19.760;2022-07-11T06:19:14;22.93;51.03
67502;SHT30;54349;52.528;19.760;2022-07-11T06:21:43;23.02;50.87
67502;SHT30;54349;52.528;19.760;2022-07-11T06:24:11;23.14;50.74
67502;SHT30;54349;52.528;19.760;2022-07-11T06:26:40;23.15;49.95
67502;SHT30;54349;52.528;19.760;2022-07-11T06:29:08;22.99;50.86
67502;SHT30;54349;52.528;19.760;2022-07-11T06:31:36;23.06;51.11
67502;SHT30;54349;52.528;19.760;2022-07-11T06:34:05;23.17;51.11
67502;SHT30;54349;52.528;19.760;2022-07-11T06:36:34;23.25;50.65
67502;SHT30;54349;52.528;19.760;2022-07-11T06:39:02;23.13;50.70
67502;SHT30;54349;52.528;19.760;2022-07-11T06:41:31;23.15;51.25
67502;SHT30;54349;52.528;19.760;2022-07-11T06:43:59;23.25;51.27
67502;SHT30;54349;52.528;19.760;2022-07-11T06:46:27;23.34;50.80
67502;SHT30;54349;52.528;19.760;2022-07-11T06:48:56;23.22;50.52
67502;SHT30;54349;52.528;19.760;2022-07-11T06:51:24;23.17;51.16
67502;SHT30;54349;52.528;19.760;2022-07-11T06:53:52;23.28;51.29
67502;SHT30;54349;52.528;19.760;2022-07-11T06:56:20;23.40;51.05
67502;SHT30;54349;52.528;19.760;2022-07-11T06:58:49;23.33;50.45
67502;SHT30;54349;52.528;19.760;2022-07-11T07:01:17;23.26;51.19
67502;SHT30;54349;52.528;19.760;2022-07-11T07:03:45;23.34;51.30
67502;SHT30;54349;52.528;19.760;2022-07-11T07:06:15;23.46;51.15
67502;SHT30;54349;52.528;19.760;2022-07-11T07:08:44;23.42;50.48
67502;SHT30;54349;52.528;19.760;2022-07-11T07:11:13;23.35;51.23
67502;SHT30;54349;52.528;19.760;2022-07-11T07:13:41;23.44;51.44
67502;SHT30;54349;52.528;19.760;2022-07-11T07:16:11;23.54;51.44
67502;SHT30;54349;52.528;19.760;2022-07-11T07:18:39;23.54;50.47
67502;SHT30;54349;52.528;19.760;2022-07-11T07:21:11;23.39;51.24
67502;SHT30;54349;52.528;19.760;2022-07-11T07:23:39;23.44;51.59
67502;SHT30;54349;52.528;19.760;2022-07-11T07:26:08;23.55;51.60
67502;SHT30;54349;52.528;19.760;2022-07-11T07:28:36;23.57;50.60
67502;SHT30;54349;52.528;19.760;2022-07-11T07:31:06;23.41;51.06
67502;SHT30;54349;52.528;19.760;2022-07-11T07:33:42;23.45;51.72
67502;SHT30;54349;52.528;19.760;2022-07-11T07:36:13;23.57;51.88
67502;SHT30;54349;52.528;19.760;2022-07-11T07:38:43;23.60;51.02
67502;SHT30;54349;52.528;19.760;2022-07-11T07:41:15;23.43;51.41
67502;SHT30;54349;52.528;19.760;2022-07-11T07:43:44;23.45;52.30
67502;SHT30;54349;52.528;19.760;2022-07-11T07:46:13;23.57;52.37
67502;SHT30;54349;52.528;19.760;2022-07-11T07:48:42;23.59;51.53
67502;SHT30;54349;52.528;19.760;2022-07-11T07:51:10;23.42;51.91
67502;SHT30;54349;52.528;19.760;2022-07-11T07:53:39;23.45;52.58
67502;SHT30;54349;52.528;19.760;2022-07-11T07:56:07;23.58;52.55
67502;SHT30;54349;52.528;19.760;2022-07-11T07:58:35;23.58;51.20
67502;SHT30;54349;52.528;19.760;2022-07-11T08:01:04;23.39;51.47
67502;SHT30;54349;52.528;19.760;2022-07-11T08:03:52;23.36;52.51
67502;SHT30;54349;52.528;19.760;2022-07-11T08:06:22;23.50;52.75
67502;SHT30;54349;52.528;19.760;2022-07-11T08:08:50;23.59;52.47
67502;SHT30;54349;52.528;19.760;2022-07-11T08:11:19;23.46;52.08
67502;SHT30;54349;52.528;19.760;2022-07-11T08:13:57;23.29;52.85
67502;SHT30;54349;52.528;19.760;2022-07-11T08:16:27;23.36;53.87
67502;SHT30;54349;52.528;19.760;2022-07-11T08:18:59;23.50;54.18
67502;SHT30;54349;52.528;19.760;2022-07-11T08:21:29;23.57;53.12
67502;SHT30;54349;52.528;19.760;2022-07-11T08:23:59;23.40;52.91
67502;SHT30;54349;52.528;19.760;2022-07-11T08:26:29;23.30;54.24
67502;SHT30;54349;52.528;19.760;2022-07-11T08:29:01;23.43;54.69
67502;SHT30;54349;52.528;19.760;2022-07-11T08:31:31;23.58;54.48
67502;SHT30;54349;52.528;19.760;2022-07-11T08:34:01;23.55;53.28
67502;SHT30;54349;52.528;19.760;2022-07-11T08:36:30;23.37;53.62
67502;SHT30;54349;52.528;19.760;2022-07-11T08:39:03;23.41;54.71
67502;SHT30;54349;52.528;19.760;2022-07-11T08:41:31;23.56;54.94
67502;SHT30;54349;52.528;19.760;2022-07-11T08:44:04;23.61;53.95
67502;SHT30;54349;52.528;19.760;2022-07-11T08:46:35;23.45;53.53
67502;SHT30;54349;52.528;19.760;2022-07-11T08:49:11;23.29;53.92
67502;SHT30;54349;52.528;19.760;2022-07-11T08:51:41;23.33;55.01
67502;SHT30;54349;52.528;19.760;2022-07-11T08:54:13;23.49;54.92
67502;SHT30;54349;52.528;19.760;2022-07-11T08:56:46;23.60;54.06
67502;SHT30;54349;52.528;19.760;2022-07-11T08:59:22;23.48;53.40
67502;SHT30;54349;52.528;19.760;2022-07-11T09:01:57;23.37;54.01
67502;SHT30;54349;52.528;19.760;2022-07-11T09:04:31;23.50;54.17
67502;SHT30;54349;52.528;19.760;2022-07-11T09:07:01;23.62;53.68
67502;SHT30;54349;52.528;19.760;2022-07-11T09:09:30;23.55;52.67
67502;SHT30;54349;52.528;19.760;2022-07-11T09:11:58;23.40;53.43
67502;SHT30;54349;52.528;19.760;2022-07-11T09:14:27;23.49;53.75
67502;SHT30;54349;52.528;19.760;2022-07-11T09:16:59;23.63;53.36
67502;SHT30;54349;52.528;19.760;2022-07-11T09:19:34;23.56;52.24
67502;SHT30;54349;52.528;19.760;2022-07-11T09:22:08;23.40;52.64
67502;SHT30;54349;52.528;19.760;2022-07-11T09:25:07;23.49;53.16
67502;SHT30;54349;52.528;19.760;2022-07-11T09:28:07;23.65;52.59
67502;SHT30;54349;52.528;19.760;2022-07-11T09:30:37;23.54;51.79
67502;SHT30;54349;52.528;19.760;2022-07-11T09:33:09;23.46;52.61
67502;SHT30;54349;52.528;19.760;2022-07-11T09:35:40;23.59;52.78
67502;SHT30;54349;52.528;19.760;2022-07-11T09:38:14;23.72;52.28
67502;SHT30;54349;52.528;19.760;2022-07-11T09:40:45;23.60;51.52
67502;SHT30;54349;52.528;19.760;2022-07-11T09:43:23;23.43;51.97
67502;SHT30;54349;52.528;19.760;2022-07-11T09:45:53;23.50;52.41
67502;SHT30;54349;52.528;19.760;2022-07-11T09:48:34;23.67;52.27
67502;SHT30;54349;52.528;19.760;2022-07-11T09:51:02;23.68;51.47
67502;SHT30;54349;52.528;19.760;2022-07-11T09:53:32;23.48;51.14
67502;SHT30;54349;52.528;19.760;2022-07-11T09:56:00;23.25;51.12
67502;SHT30;54349;52.528;19.760;2022-07-11T09:58:29;23.12;51.62
67502;SHT30;54349;52.528;19.760;2022-07-11T10:00:59;23.22;51.76
67502;SHT30;54349;52.528;19.760;2022-07-11T10:03:28;23.40;51.60
67502;SHT30;54349;52.528;19.760;2022-07-11T10:06:17;23.49;51.41
67502;SHT30;54349;52.528;19.760;2022-07-11T10:08:45;23.33;51.28
67502;SHT30;54349;52.528;19.760;2022-07-11T10:11:14;23.14;51.00
67502;SHT30;54349;52.528;19.760;2022-07-11T10:13:42;22.99;51.32
67502;SHT30;54349;52.528;19.760;2022-07-11T10:16:55;23.08;51.49
67502;SHT30;54349;52.528;19.760;2022-07-11T10:19:32;23.31;51.26
67502;SHT30;54349;52.528;19.760;2022-07-11T10:22:29;23.40;51.19
67502;SHT30;54349;52.528;19.760;2022-07-11T10:25:17;23.19;51.14
67502;SHT30;54349;52.528;19.760;2022-07-11T10:31:32;22.97;51.78
67502;SHT30;54349;52.528;19.760;2022-07-11T10:34:26;23.17;51.50
67502;SHT30;54349;52.528;19.760;2022-07-11T10:36:59;23.32;51.27
67502;SHT30;54349;52.528;19.760;2022-07-11T10:39:30;23.24;51.05
67502;SHT30;54349;52.528;19.760;2022-07-11T10:42:06;23.02;51.21
67502;SHT30;54349;52.528;19.760;2022-07-11T10:47:34;23.19;52.32
67502;SHT30;54349;52.528;19.760;2022-07-11T10:50:32;23.33;51.69
67502;SHT30;54349;52.528;19.760;2022-07-11T10:53:09;23.20;51.95
67502;SHT30;54349;52.528;19.760;2022-07-11T10:59:22;23.47;52.30
67502;SHT30;54349;52.528;19.760;2022-07-11T11:02:03;23.46;51.16
67502;SHT30;54349;52.528;19.760;2022-07-11T11:10:07;23.63;51.29
67502;SHT30;54349;52.528;19.760;2022-07-11T11:15:41;23.42;52.57
67502;SHT30;54349;52.528;19.760;2022-07-11T11:23:35;23.56;51.52
67502;SHT30;54349;52.528;19.760;2022-07-11T11:26:18;23.37;51.52
67502;SHT30;54349;52.528;19.760;2022-07-11T11:29:01;23.31;52.39
67502;SHT30;54349;52.528;19.760;2022-07-11T11:31:34;23.49;52.48
67502;SHT30;54349;52.528;19.760;2022-07-11T11:34:03;23.65;52.18
67502;SHT30;54349;52.528;19.760;2022-07-11T11:36:32;23.60;51.88
67502;SHT30;54349;52.528;19.760;2022-07-11T11:39:00;23.42;51.78
67502;SHT30;54349;52.528;19.760;2022-07-11T11:41:29;23.26;51.55
67502;SHT30;54349;52.528;19.760;2022-07-11T11:44:00;23.22;52.35
67502;SHT30;54349;52.528;19.760;2022-07-11T11:46:31;23.37;52.40
67502;SHT30;54349;52.528;19.760;2022-07-11T11:49:05;23.54;52.15
67502;SHT30;54349;52.528;19.760;2022-07-11T11:51:33;23.55;51.34
67502;SHT30;54349;52.528;19.760;2022-07-11T11:54:02;23.43;51.88
67502;SHT30;54349;52.528;19.760;2022-07-11T11:56:31;23.51;52.10
67502;SHT30;54349;52.528;19.760;2022-07-11T12:01:42;23.66;50.74
67502;SHT30;54349;52.528;19.760;2022-07-11T12:04:16;23.55;51.51
67502;SHT30;54349;52.528;19.760;2022-07-11T12:06:46;23.64;51.67
67502;SHT30;54349;52.528;19.760;2022-07-11T12:09:18;23.77;51.08
67502;SHT30;54349;52.528;19.760;2022-07-11T12:12:16;23.62;50.79
67502;SHT30;54349;52.528;19.760;2022-07-11T12:18:27;23.82;51.32
67502;SHT30;54349;52.528;19.760;2022-07-11T12:20:56;23.75;50.48
67502;SHT30;54349;52.528;19.760;2022-07-11T12:23:38;23.60;51.24
67502;SHT30;54349;52.528;19.760;2022-07-11T12:26:07;23.68;51.57
67502;SHT30;54349;52.528;19.760;2022-07-11T12:28:35;23.83;51.23
67502;SHT30;54349;52.528;19.760;2022-07-11T12:31:41;23.74;50.63
67502;SHT30;54349;52.528;19.760;2022-07-11T12:34:17;23.70;51.50
67502;SHT30;54349;52.528;19.760;2022-07-11T12:37:05;23.84;51.48
67502;SHT30;54349;52.528;19.760;2022-07-11T12:39:46;23.87;50.77
67502;SHT30;54349;52.528;19.760;2022-07-11T12:42:26;23.70;50.66
67502;SHT30;54349;52.528;19.760;2022-07-11T12:47:39;23.75;52.00
67502;SHT30;54349;52.528;19.760;2022-07-11T12:50:12;23.88;51.56
67502;SHT30;54349;52.528;19.760;2022-07-11T12:52:46;23.76;51.21
67502;SHT30;54349;52.528;19.760;2022-07-11T12:55:27;23.57;51.01
67502;SHT30;54349;52.528;19.760;2022-07-11T12:58:04;23.40;51.44
67502;SHT30;54349;52.528;19.760;2022-07-11T13:00:36;23.51;52.09
67502;SHT30;54349;52.528;19.760;2022-07-11T13:03:07;23.70;52.13
67502;SHT30;54349;52.528;19.760;2022-07-11T13:05:56;23.70;51.62
67502;SHT30;54349;52.528;19.760;2022-07-11T13:08:29;23.53;51.51
67502;SHT30;54349;52.528;19.760;2022-07-11T13:11:17;23.36;51.32
67502;SHT30;54349;52.528;19.760;2022-07-11T13:13:48;23.34;52.07
67502;SHT30;54349;52.528;19.760;2022-07-11T13:16:18;23.51;52.19
67502;SHT30;54349;52.528;19.760;2022-07-11T13:18:47;23.70;51.93
67502;SHT30;54349;52.528;19.760;2022-07-11T13:21:17;23.66;51.62
67502;SHT30;54349;52.528;19.760;2022-07-11T13:23:46;23.52;51.62
67502;SHT30;54349;52.528;19.760;2022-07-11T13:26:14;23.42;51.69
67502;SHT30;54349;52.528;19.760;2022-07-11T13:28:43;23.35;52.10
67502;SHT30;54349;52.528;19.760;2022-07-11T13:31:11;23.50;52.38
67502;SHT30;54349;52.528;19.760;2022-07-11T13:33:43;23.71;52.32
67502;SHT30;54349;52.528;19.760;2022-07-11T13:36:11;23.73;52.31
67502;SHT30;54349;52.528;19.760;2022-07-11T13:38:39;23.58;52.18
67502;SHT30;54349;52.528;19.760;2022-07-11T13:41:07;23.44;51.96
67502;SHT30;54349;52.528;19.760;2022-07-11T13:43:43;23.31;51.64
67502;SHT30;54349;52.528;19.760;2022-07-11T13:46:13;23.32;52.45
67502;SHT30;54349;52.528;19.760;2022-07-11T13:48:41;23.50;52.91
67502;SHT30;54349;52.528;19.760;2022-07-11T13:51:10;23.65;52.55
67502;SHT30;54349;52.528;19.760;2022-07-11T13:53:39;23.53;52.26
67502;SHT30;54349;52.528;19.760;2022-07-11T13:56:08;23.38;52.16
67502;SHT30;54349;52.528;19.760;2022-07-11T13:58:36;23.24;52.08
67502;SHT30;54349;52.528;19.760;2022-07-11T14:01:05;23.23;52.94
67502;SHT30;54349;52.528;19.760;2022-07-11T14:03:37;23.42;52.95
67502;SHT30;54349;52.528;19.760;2022-07-11T14:06:09;23.59;52.52
67502;SHT30;54349;52.528;19.760;2022-07-11T14:08:38;23.53;52.21
67502;SHT30;54349;52.528;19.760;2022-07-11T14:11:08;23.39;52.03
67502;SHT30;54349;52.528;19.760;2022-07-11T14:13:37;23.28;51.68
67502;SHT30;54349;52.528;19.760;2022-07-11T14:16:10;23.18;51.49
67502;SHT30;54349;52.528;19.760;2022-07-11T14:18:54;23.26;52.23
67502;SHT30;54349;52.528;19.760;2022-07-11T14:21:24;23.48;52.12
67502;SHT30;54349;52.528;19.760;2022-07-11T14:23:54;23.63;51.74
67502;SHT30;54349;52.528;19.760;2022-07-11T14:26:24;23.54;51.28
67502;SHT30;54349;52.528;19.760;2022-07-11T14:28:54;23.31;51.19
67502;SHT30;54349;52.528;19.760;2022-07-11T14:31:33;23.11;51.10
67502;SHT30;54349;52.528;19.760;2022-07-11T14:34:04;23.04;51.83
67502;SHT30;54349;52.528;19.760;2022-07-11T14:36:33;23.18;51.81
67502;SHT30;54349;52.528;19.760;2022-07-11T14:39:01;23.33;51.67
67502;SHT30;54349;52.528;19.760;2022-07-11T14:41:30;23.43;51.44
67502;SHT30;54349;52.528;19.760;2022-07-11T14:43:59;23.26;51.29
67502;SHT30;54349;52.528;19.760;2022-07-11T14:46:28;23.11;51.67
67502;SHT30;54349;52.528;19.760;2022-07-11T14:48:57;23.19;51.69
67502;SHT30;54349;52.528;19.760;2022-07-11T14:51:26;23.34;51.41
67502;SHT30;54349;52.528;19.760;2022-07-11T14:54:17;23.45;51.06
67502;SHT30;54349;52.528;19.760;2022-07-11T14:56:48;23.32;50.47
67502;SHT30;54349;52.528;19.760;2022-07-11T14:59:19;23.13;51.12
67502;SHT30;54349;52.528;19.760;2022-07-11T15:01:52;23.20;51.24
67502;SHT30;54349;52.528;19.760;2022-07-11T15:04:23;23.34;51.13
67502;SHT30;54349;52.528;19.760;2022-07-11T15:06:56;23.44;50.89
67502;SHT30;54349;52.528;19.760;2022-07-11T15:10:05;23.29;50.32
67502;SHT30;54349;52.528;19.760;2022-07-11T15:12:55;23.15;51.00
67502;SHT30;54349;52.528;19.760;2022-07-11T15:15:24;23.26;51.00
67502;SHT30;54349;52.528;19.760;2022-07-11T15:17:55;23.38;50.94
67502;SHT30;54349;52.528;19.760;2022-07-11T15:20:25;23.47;50.64
67502;SHT30;54349;52.528;19.760;2022-07-11T15:22:56;23.33;50.28
67502;SHT30;54349;52.528;19.760;2022-07-11T15:25:26;23.20;50.94
67502;SHT30;54349;52.528;19.760;2022-07-11T15:27:58;23.28;51.05
67502;SHT30;54349;52.528;19.760;2022-07-11T15:30:31;23.40;51.10
67502;SHT30;54349;52.528;19.760;2022-07-11T15:33:02;23.48;50.80
67502;SHT30;54349;52.528;19.760;2022-07-11T15:35:32;23.31;50.35
67502;SHT30;54349;52.528;19.760;2022-07-11T15:38:05;23.11;50.78
67502;SHT30;54349;52.528;19.760;2022-07-11T15:40:34;23.17;51.12
67502;SHT30;54349;52.528;19.760;2022-07-11T15:43:03;23.32;51.12
67502;SHT30;54349;52.528;19.760;2022-07-11T15:45:33;23.47;51.03
67502;SHT30;54349;52.528;19.760;2022-07-11T15:48:04;23.42;50.85
67502;SHT30;54349;52.528;19.760;2022-07-11T15:50:33;23.21;50.85
67502;SHT30;54349;52.528;19.760;2022-07-11T15:53:02;23.01;51.15
67502;SHT30;54349;52.528;19.760;2022-07-11T15:55:30;22.85;51.00
67502;SHT30;54349;52.528;19.760;2022-07-11T15:57:58;22.88;51.46
67502;SHT30;54349;52.528;19.760;2022-07-11T16:00:27;23.07;51.27
67502;SHT30;54349;52.528;19.760;2022-07-11T16:02:56;23.23;51.14
67502;SHT30;54349;52.528;19.760;2022-07-11T16:05:24;23.31;51.07
67502;SHT30;54349;52.528;19.760;2022-07-11T16:07:53;23.17;50.85
67502;SHT30;54349;52.528;19.760;2022-07-11T16:10:22;22.98;51.15
67502;SHT30;54349;52.528;19.760;2022-07-11T16:12:50;23.02;51.34